createdAt,value
2017-12-20T00:00:56.164Z,19.70
2017-12-20T00:03:23.795Z,18.47
2017-12-20T00:05:52.243Z,20.83
2017-12-20T00:08:20.752Z,19.80
2017-12-20T00:10:48.387Z,18.50
2017-12-20T00:13:16.072Z,18.50
2017-12-20T00:15:44.469Z,21.83
2017-12-20T00:18:12.120Z,20.20
2017-12-20T00:20:40.576Z,21.20
2017-12-20T00:23:08.203Z,21.80
2017-12-20T00:25:35.878Z,21.10
2017-12-20T00:28:03.571Z,22.03
2017-12-20T00:30:31.968Z,21.70
2017-12-20T00:32:59.606Z,21.63
2017-12-20T00:35:28.068Z,21.83
2017-12-20T00:37:55.726Z,21.60
2017-12-20T00:40:23.442Z,24.07
2017-12-20T00:42:51.242Z,22.43
2017-12-20T00:45:18.900Z,22.50
2017-12-20T00:47:46.535Z,22.97
2017-12-20T00:50:14.215Z,24.80
2017-12-20T00:52:41.871Z,22.90
2017-12-20T00:55:09.503Z,21.90
2017-12-20T00:57:37.317Z,23.40
2017-12-20T01:00:05.015Z,24.60
2017-12-20T01:02:32.673Z,22.53
2017-12-20T01:05:00.370Z,21.20
2017-12-20T01:07:28.055Z,24.57
2017-12-20T01:09:55.692Z,25.70
2017-12-20T01:12:23.395Z,24.90
2017-12-20T01:14:51.796Z,24.07
2017-12-20T01:17:19.435Z,26.33
2017-12-20T01:19:47.130Z,25.13
2017-12-20T01:22:14.784Z,24.47
2017-12-20T01:24:42.451Z,23.90
2017-12-20T01:27:10.158Z,25.30
2017-12-20T01:29:37.791Z,27.10
2017-12-20T01:32:05.436Z,24.30
2017-12-20T01:34:33.203Z,25.73
2017-12-20T01:37:01.605Z,25.67
2017-12-20T01:39:29.243Z,25.43
2017-12-20T01:41:57.009Z,27.17
2017-12-20T01:44:24.636Z,26.87
2017-12-20T01:46:52.356Z,28.00
2017-12-20T01:49:20.054Z,28.63
2017-12-20T01:51:47.699Z,25.43
2017-12-20T01:54:16.135Z,25.60
2017-12-20T01:56:43.878Z,27.37
2017-12-20T01:59:11.539Z,26.90
2017-12-20T02:01:39.203Z,27.27
2017-12-20T02:04:07.703Z,26.13
2017-12-20T02:06:35.390Z,25.60
2017-12-20T02:09:03.160Z,26.90
2017-12-20T02:11:31.647Z,27.03
2017-12-20T02:14:00.095Z,23.97
2017-12-20T02:16:27.903Z,26.93
2017-12-20T02:18:56.484Z,24.90
2017-12-20T02:21:24.166Z,24.30
2017-12-20T02:23:51.862Z,24.43
2017-12-20T02:26:19.603Z,25.83
2017-12-20T02:28:47.313Z,25.53
2017-12-20T02:31:15.751Z,24.30
2017-12-20T02:33:43.554Z,25.50
2017-12-20T02:36:11.991Z,25.90
2017-12-20T02:38:39.696Z,25.60
2017-12-20T02:41:09.181Z,26.33
2017-12-20T02:43:40.679Z,22.73
2017-12-20T02:46:08.411Z,25.50
2017-12-20T02:48:36.917Z,26.40
2017-12-20T02:51:04.616Z,26.67
2017-12-20T02:53:32.387Z,25.67
2017-12-20T02:56:00.083Z,26.77
2017-12-20T02:58:28.562Z,25.10
2017-12-20T03:00:56.292Z,24.77
2017-12-20T03:03:24.015Z,26.47
2017-12-20T03:05:51.715Z,24.60
2017-12-20T03:08:19.588Z,23.87
2017-12-20T03:10:47.284Z,23.50
2017-12-20T03:13:14.979Z,24.13
2017-12-20T03:15:42.744Z,24.87
2017-12-20T03:18:11.137Z,25.40
2017-12-20T03:20:38.831Z,23.07
2017-12-20T03:23:07.419Z,24.03
2017-12-20T03:25:35.847Z,22.17
2017-12-20T03:28:03.523Z,23.57
2017-12-20T03:30:31.223Z,24.10
2017-12-20T03:32:58.889Z,23.30
2017-12-20T03:35:26.624Z,22.33
2017-12-20T03:37:54.327Z,23.30
2017-12-20T03:40:21.958Z,22.90
2017-12-20T03:42:50.371Z,22.60
2017-12-20T03:45:18.060Z,23.30
2017-12-20T03:47:45.716Z,21.70
2017-12-20T03:50:13.406Z,21.20
2017-12-20T03:52:41.928Z,22.30
2017-12-20T03:55:09.688Z,22.33
2017-12-20T03:57:37.311Z,22.53
2017-12-20T04:00:05.093Z,21.77
2017-12-20T04:02:33.628Z,21.70
2017-12-20T04:05:01.259Z,21.43
2017-12-20T04:07:28.964Z,22.30
2017-12-20T04:09:56.678Z,22.47
2017-12-20T04:12:24.319Z,23.17
2017-12-20T04:14:52.039Z,23.00
2017-12-20T04:17:19.687Z,22.03
2017-12-20T04:19:47.344Z,21.33
2017-12-20T04:22:15.047Z,23.67
2017-12-20T04:24:43.458Z,23.80
2017-12-20T04:27:11.096Z,22.37
2017-12-20T04:29:38.901Z,22.20
2017-12-20T04:32:06.548Z,22.53
2017-12-20T04:34:34.179Z,22.07
2017-12-20T04:37:01.857Z,22.27
2017-12-20T04:39:30.260Z,20.97
2017-12-20T04:41:57.871Z,21.00
2017-12-20T04:44:25.576Z,22.50
2017-12-20T04:46:53.185Z,22.07
2017-12-20T04:49:21.562Z,21.70
2017-12-20T04:51:50.026Z,21.47
2017-12-20T04:54:18.437Z,22.10
2017-12-20T04:56:46.090Z,21.80
2017-12-20T04:59:13.815Z,21.17
2017-12-20T05:01:41.471Z,22.20
2017-12-20T05:04:09.074Z,20.70
2017-12-20T05:06:36.766Z,21.70
2017-12-20T05:09:04.935Z,22.80
2017-12-20T05:11:32.577Z,22.03
2017-12-20T05:14:00.251Z,21.37
2017-12-20T05:16:27.880Z,20.80
2017-12-20T05:18:56.284Z,21.70
2017-12-20T05:21:23.996Z,20.70
2017-12-20T05:23:51.687Z,22.13
2017-12-20T05:26:19.319Z,20.07
2017-12-20T05:28:47.774Z,21.83
2017-12-20T05:31:15.406Z,21.07
2017-12-20T05:33:43.024Z,22.67
2017-12-20T05:36:11.467Z,21.23
2017-12-20T05:38:39.103Z,21.40
2017-12-20T05:41:06.772Z,21.70
2017-12-20T05:43:34.451Z,20.47
2017-12-20T05:46:02.138Z,21.43
2017-12-20T05:48:29.787Z,20.00
2017-12-20T05:50:57.739Z,21.90
2017-12-20T05:53:25.379Z,21.40
2017-12-20T05:55:52.995Z,21.60
2017-12-20T05:58:20.682Z,21.30
2017-12-20T06:00:48.316Z,20.67
2017-12-20T06:03:17.640Z,19.10
2017-12-20T06:05:45.312Z,19.70
2017-12-20T06:08:13.002Z,19.53
2017-12-20T06:10:40.624Z,20.80
2017-12-20T06:13:08.483Z,20.10
2017-12-20T06:15:36.119Z,19.90
2017-12-20T06:18:04.555Z,20.67
2017-12-20T06:20:32.256Z,21.27
2017-12-20T06:22:59.892Z,21.63
2017-12-20T06:25:27.527Z,19.47
2017-12-20T06:27:55.227Z,20.10
2017-12-20T06:30:23.639Z,19.80
2017-12-20T06:32:51.281Z,19.87
2017-12-20T06:35:19.744Z,20.70
2017-12-20T06:37:48.181Z,20.60
2017-12-20T06:40:15.824Z,19.80
2017-12-20T06:42:43.688Z,18.83
2017-12-20T06:45:12.181Z,18.47
2017-12-20T06:47:39.850Z,18.80
2017-12-20T06:50:07.547Z,18.53
2017-12-20T06:52:35.193Z,18.40
2017-12-20T06:55:02.863Z,19.97
2017-12-20T06:57:30.732Z,19.33
2017-12-20T06:59:58.603Z,18.10
2017-12-20T07:02:27.037Z,20.40
2017-12-20T07:04:54.741Z,18.50
2017-12-20T07:07:23.165Z,18.97
2017-12-20T07:09:50.800Z,17.00
2017-12-20T07:12:18.545Z,18.67
2017-12-20T07:14:46.278Z,18.13
2017-12-20T07:17:13.919Z,18.30
2017-12-20T07:19:43.180Z,15.23
2017-12-20T07:22:10.969Z,16.40
2017-12-20T07:24:38.738Z,17.30
2017-12-20T07:27:06.443Z,18.80
2017-12-20T07:29:34.891Z,17.87
2017-12-20T07:32:02.551Z,15.70
2017-12-20T07:34:30.424Z,16.10
2017-12-20T07:36:58.153Z,15.60
2017-12-20T07:39:25.864Z,17.00
2017-12-20T07:41:53.557Z,15.57
2017-12-20T07:44:22.284Z,15.93
2017-12-20T07:46:49.979Z,15.00
2017-12-20T07:49:17.820Z,14.13
2017-12-20T07:51:45.923Z,14.93
2017-12-20T07:54:13.976Z,16.60
2017-12-20T07:56:42.436Z,14.97
2017-12-20T07:59:10.192Z,15.20
2017-12-20T08:01:38.217Z,16.03
2017-12-20T08:04:05.947Z,13.73
2017-12-20T08:06:33.766Z,16.07
2017-12-20T08:09:01.468Z,14.10
2017-12-20T08:11:29.182Z,15.30
2017-12-20T08:13:56.861Z,14.90
2017-12-20T08:16:24.511Z,14.13
2017-12-20T08:18:52.341Z,14.90
2017-12-20T08:21:20.771Z,14.80
2017-12-20T08:23:48.510Z,14.13
2017-12-20T08:26:16.327Z,13.73
2017-12-20T08:28:43.997Z,12.97
2017-12-20T08:31:12.434Z,13.40
2017-12-20T08:33:40.175Z,15.03
2017-12-20T08:36:07.820Z,14.00
2017-12-20T08:38:35.456Z,13.23
2017-12-20T08:41:04.023Z,14.10
2017-12-20T08:43:31.759Z,14.10
2017-12-20T08:45:59.421Z,13.67
2017-12-20T08:48:27.212Z,13.83
2017-12-20T08:50:54.988Z,14.83
2017-12-20T08:53:22.740Z,14.50
2017-12-20T08:55:50.441Z,12.00
2017-12-20T08:58:18.110Z,13.37
2017-12-20T09:00:45.804Z,13.93
2017-12-20T09:03:13.518Z,13.23
2017-12-20T09:05:41.175Z,12.07
2017-12-20T09:08:08.824Z,12.00
2017-12-20T09:10:36.676Z,13.87
2017-12-20T09:13:05.129Z,12.63
2017-12-20T09:15:32.825Z,12.20
2017-12-20T09:18:01.354Z,12.93
2017-12-20T09:20:29.021Z,11.00
2017-12-20T09:22:56.660Z,11.17
2017-12-20T09:25:24.469Z,12.10
2017-12-20T09:27:52.116Z,11.87
2017-12-20T09:30:19.821Z,10.73
2017-12-20T09:32:47.654Z,12.07
2017-12-20T09:35:15.316Z,11.87
2017-12-20T09:37:42.967Z,11.80
2017-12-20T09:40:10.738Z,12.00
2017-12-20T09:42:38.489Z,12.00
2017-12-20T09:45:06.166Z,11.50
2017-12-20T09:47:34.707Z,12.77
2017-12-20T09:50:02.343Z,12.43
2017-12-20T09:52:30.035Z,11.87
2017-12-20T09:54:58.001Z,12.10
2017-12-20T09:57:25.685Z,11.53
2017-12-20T09:59:53.351Z,11.00
2017-12-20T10:02:21.045Z,11.77
2017-12-20T10:04:48.791Z,11.27
2017-12-20T10:07:17.267Z,11.93
2017-12-20T10:09:46.155Z,11.80
2017-12-20T10:12:14.634Z,11.43
2017-12-20T10:14:43.102Z,10.37
2017-12-20T10:17:10.920Z,9.47
2017-12-20T10:19:38.604Z,8.90
2017-12-20T10:22:06.261Z,10.03
2017-12-20T10:24:34.051Z,9.73
2017-12-20T10:27:02.452Z,9.47
2017-12-20T10:29:30.870Z,9.73
2017-12-20T10:34:26.348Z,8.47
2017-12-20T10:36:54.794Z,9.50
2017-12-20T10:39:22.547Z,8.63
2017-12-20T10:41:50.247Z,10.33
2017-12-20T10:44:19.500Z,8.67
2017-12-20T10:46:47.207Z,9.30
2017-12-20T10:49:14.934Z,9.30
2017-12-20T10:51:42.731Z,9.20
2017-12-20T10:54:11.227Z,10.60
2017-12-20T10:56:40.259Z,8.23
2017-12-20T10:59:07.974Z,7.93
2017-12-20T11:01:35.751Z,9.73
2017-12-20T11:04:03.473Z,9.33
2017-12-20T11:06:31.166Z,8.23
2017-12-20T11:08:58.995Z,8.03
2017-12-20T11:11:27.487Z,7.63
2017-12-20T11:13:56.001Z,8.77
2017-12-20T11:16:24.963Z,8.90
2017-12-20T11:18:52.658Z,8.13
2017-12-20T11:21:20.404Z,8.37
2017-12-20T11:23:48.146Z,8.30
2017-12-20T11:26:16.584Z,8.07
2017-12-20T11:28:44.249Z,7.50
2017-12-20T11:31:12.115Z,8.17
2017-12-20T11:33:40.018Z,7.20
2017-12-20T11:36:07.686Z,7.60
2017-12-20T11:38:35.449Z,8.10
2017-12-20T11:41:03.909Z,6.90
2017-12-20T11:43:32.435Z,7.70
2017-12-20T11:46:00.219Z,6.73
2017-12-20T11:48:27.887Z,5.80
2017-12-20T11:50:55.568Z,6.47
2017-12-20T11:53:23.327Z,5.43
2017-12-20T11:55:51.026Z,7.37
2017-12-20T11:58:18.716Z,6.90
2017-12-20T12:00:46.724Z,7.00
2017-12-20T12:03:14.394Z,5.67
2017-12-20T12:05:42.825Z,6.70
2017-12-20T12:08:10.570Z,5.93
2017-12-20T12:10:38.332Z,6.40
2017-12-20T12:13:05.976Z,6.30
2017-12-20T12:15:33.683Z,5.63
2017-12-20T12:18:01.356Z,6.10
2017-12-20T12:20:29.001Z,6.10
2017-12-20T12:22:56.697Z,5.50
2017-12-20T12:25:25.479Z,5.93
2017-12-20T12:27:53.127Z,6.53
2017-12-20T12:30:20.884Z,6.40
2017-12-20T12:32:48.559Z,6.20
2017-12-20T12:35:16.301Z,7.20
2017-12-20T12:37:44.020Z,6.77
2017-12-20T12:40:11.726Z,6.50
2017-12-20T12:42:39.412Z,7.80
2017-12-20T12:45:07.971Z,6.63
2017-12-20T12:47:35.648Z,7.60
2017-12-20T12:50:04.068Z,7.33
2017-12-20T12:52:31.879Z,8.43
2017-12-20T12:54:59.541Z,9.30
2017-12-20T12:57:27.296Z,9.00
2017-12-20T12:59:55.056Z,8.07
2017-12-20T13:02:22.752Z,7.93
2017-12-20T13:04:50.479Z,8.00
2017-12-20T13:07:18.448Z,8.57
2017-12-20T13:09:46.092Z,9.03
2017-12-20T13:12:13.798Z,9.10
2017-12-20T13:14:42.384Z,9.40
2017-12-20T13:17:10.815Z,8.27
2017-12-20T13:19:38.463Z,7.80
2017-12-20T13:22:06.353Z,8.33
2017-12-20T13:24:34.051Z,7.50
2017-12-20T13:27:02.451Z,8.53
2017-12-20T13:29:30.124Z,6.60
2017-12-20T13:31:57.788Z,6.50
2017-12-20T13:34:25.392Z,6.77
2017-12-20T13:36:54.522Z,7.13
2017-12-20T13:39:22.147Z,7.37
2017-12-20T13:41:50.550Z,7.30
2017-12-20T13:44:18.363Z,6.37
2017-12-20T13:46:46.034Z,7.10
2017-12-20T13:49:13.738Z,8.50
2017-12-20T13:51:41.545Z,7.77
2017-12-20T13:54:09.996Z,7.03
2017-12-20T13:56:37.652Z,7.30
2017-12-20T13:59:05.680Z,6.90
2017-12-20T14:01:34.139Z,6.40
2017-12-20T14:04:01.805Z,6.30
2017-12-20T14:06:29.508Z,6.53
2017-12-20T14:08:57.136Z,7.13
2017-12-20T14:11:24.882Z,7.00
2017-12-20T14:13:52.833Z,6.47
2017-12-20T14:16:20.502Z,6.90
2017-12-20T14:18:48.129Z,6.53
2017-12-20T14:21:15.819Z,6.77
2017-12-20T14:23:43.429Z,5.97
2017-12-20T14:26:11.079Z,6.07
2017-12-20T14:28:41.375Z,6.23
2017-12-20T14:31:09.080Z,6.80
2017-12-20T14:33:36.692Z,6.40
2017-12-20T14:36:04.364Z,5.90
2017-12-20T14:38:32.024Z,5.70
2017-12-20T14:40:59.646Z,5.43
2017-12-20T14:43:27.372Z,6.60
2017-12-20T14:45:56.002Z,6.37
2017-12-20T14:48:23.634Z,7.03
2017-12-20T14:50:51.340Z,7.43
2017-12-20T14:53:19.011Z,6.20
2017-12-20T14:55:46.727Z,6.30
2017-12-20T14:58:14.486Z,6.10
2017-12-20T15:00:42.171Z,6.63
2017-12-20T15:03:09.823Z,6.70
2017-12-20T15:05:37.579Z,6.43
2017-12-20T15:08:05.266Z,6.27
2017-12-20T15:10:32.935Z,6.10
2017-12-20T15:13:00.629Z,5.87
2017-12-20T15:15:28.332Z,6.37
2017-12-20T15:17:55.983Z,7.03
2017-12-20T15:20:23.723Z,6.73
2017-12-20T15:22:51.348Z,6.90
2017-12-20T15:25:20.491Z,6.87
2017-12-20T15:27:48.243Z,6.83
2017-12-20T15:30:15.926Z,5.97
2017-12-20T15:32:43.673Z,5.97
2017-12-20T15:35:11.415Z,6.53
2017-12-20T15:37:39.124Z,5.97
2017-12-20T15:40:06.903Z,5.80
2017-12-20T15:42:34.656Z,6.03
2017-12-20T15:45:02.336Z,6.57
2017-12-20T15:47:30.023Z,5.77
2017-12-20T15:49:57.813Z,6.07
2017-12-20T15:52:25.468Z,5.77
2017-12-20T15:54:53.187Z,6.20
2017-12-20T15:57:21.774Z,6.20
2017-12-20T15:59:50.268Z,7.00
2017-12-20T16:02:18.651Z,6.73
2017-12-20T16:04:46.371Z,6.37
2017-12-20T16:07:14.125Z,6.53
2017-12-20T16:09:41.833Z,6.50
2017-12-20T16:12:09.570Z,7.10
2017-12-20T16:14:37.991Z,6.40
2017-12-20T16:17:05.671Z,6.33
2017-12-20T16:19:33.405Z,6.20
2017-12-20T16:22:01.122Z,7.43
2017-12-20T16:24:28.775Z,6.60
2017-12-20T16:26:56.484Z,6.13
2017-12-20T16:29:24.135Z,6.70
2017-12-20T16:31:51.824Z,6.10
2017-12-20T16:34:19.620Z,5.23
2017-12-20T16:36:47.308Z,6.83
2017-12-20T16:39:15.782Z,6.80
2017-12-20T16:41:43.531Z,6.90
2017-12-20T16:44:11.164Z,6.67
2017-12-20T16:46:38.824Z,7.60
2017-12-20T16:49:06.495Z,7.30
2017-12-20T16:51:34.163Z,7.17
2017-12-20T16:54:01.907Z,14.37
2017-12-20T16:56:29.635Z,9.70
2017-12-20T16:58:57.277Z,23.23
2017-12-20T17:01:25.683Z,8.73
2017-12-20T17:03:53.427Z,8.40
2017-12-20T17:06:21.088Z,7.80
2017-12-20T17:08:48.731Z,19.70
2017-12-20T17:11:17.259Z,20.67
2017-12-20T17:13:44.991Z,11.10
2017-12-20T17:16:12.700Z,9.97
2017-12-20T17:18:40.473Z,8.70
2017-12-20T17:21:08.111Z,8.37
2017-12-20T17:23:35.746Z,8.00
2017-12-20T17:26:03.477Z,9.03
2017-12-20T17:28:31.902Z,8.70
2017-12-20T17:30:59.644Z,9.70
2017-12-20T17:33:27.470Z,8.83
2017-12-20T17:35:55.887Z,8.40
2017-12-20T17:38:23.564Z,9.80
2017-12-20T17:40:51.288Z,9.90
2017-12-20T17:43:19.719Z,10.07
2017-12-20T17:45:47.431Z,8.90
2017-12-20T17:48:15.222Z,9.70
2017-12-20T17:50:42.868Z,8.57
2017-12-20T17:53:10.507Z,9.40
2017-12-20T17:55:38.239Z,9.70
2017-12-20T17:58:05.938Z,9.30
2017-12-20T18:00:33.635Z,10.20
2017-12-20T18:03:01.365Z,10.60
2017-12-20T18:05:29.242Z,10.93
2017-12-20T18:07:56.908Z,9.70
2017-12-20T18:10:24.627Z,9.60
2017-12-20T18:12:54.374Z,9.60
2017-12-20T18:15:22.045Z,10.60
2017-12-20T18:17:49.743Z,9.33
2017-12-20T18:20:17.408Z,9.37
2017-12-20T18:22:45.114Z,10.97
2017-12-20T18:25:13.651Z,11.17
2017-12-20T18:27:41.299Z,10.10
2017-12-20T18:30:09.054Z,11.00
2017-12-20T18:32:36.885Z,11.17
2017-12-20T18:35:04.593Z,10.30
2017-12-20T18:37:32.259Z,10.57
2017-12-20T18:39:59.991Z,9.97
2017-12-20T18:42:27.714Z,10.50
2017-12-20T18:44:55.404Z,9.47
2017-12-20T18:47:23.240Z,10.10
2017-12-20T18:49:50.884Z,9.87
2017-12-20T18:52:19.316Z,11.03
2017-12-20T18:54:47.020Z,9.27
2017-12-20T18:57:15.655Z,10.23
2017-12-20T18:59:43.370Z,11.10
2017-12-20T19:02:12.283Z,10.43
2017-12-20T19:04:40.107Z,10.97
2017-12-20T19:07:08.757Z,11.80
2017-12-20T19:09:36.887Z,11.00
2017-12-20T19:12:05.595Z,9.93
2017-12-20T19:14:33.263Z,10.13
2017-12-20T19:17:01.180Z,11.27
2017-12-20T19:19:29.796Z,10.10
2017-12-20T19:21:57.556Z,10.90
2017-12-20T19:24:25.345Z,11.33
2017-12-20T19:26:53.306Z,11.20
2017-12-20T19:29:21.332Z,12.07
2017-12-20T19:31:49.369Z,12.70
2017-12-20T19:34:17.791Z,12.00
2017-12-20T19:36:45.850Z,12.00
2017-12-20T19:39:13.577Z,13.50
2017-12-20T19:41:42.555Z,12.33
2017-12-20T19:44:10.266Z,13.17
2017-12-20T19:46:39.214Z,13.43
2017-12-20T19:49:06.888Z,12.63
2017-12-20T19:51:34.662Z,12.57
2017-12-20T19:54:03.354Z,12.20
2017-12-20T19:56:32.106Z,12.10
2017-12-20T19:59:00.407Z,13.20
2017-12-20T20:01:29.309Z,11.70
2017-12-20T20:03:56.968Z,12.70
2017-12-20T20:06:25.380Z,14.40
2017-12-20T20:08:53.985Z,13.93
2017-12-20T20:11:22.098Z,11.33
2017-12-20T20:13:50.088Z,10.20
2017-12-20T20:16:18.099Z,10.60
2017-12-20T20:18:46.562Z,9.33
2017-12-20T20:21:14.224Z,8.67
2017-12-20T20:23:42.341Z,9.13
2017-12-20T20:26:11.028Z,9.30
2017-12-20T20:28:38.811Z,9.47
2017-12-20T20:31:06.952Z,9.63
2017-12-20T20:33:34.946Z,10.00
2017-12-20T20:36:02.930Z,9.57
2017-12-20T20:38:30.782Z,10.40
2017-12-20T20:40:59.196Z,11.07
2017-12-20T20:43:27.676Z,13.20
2017-12-20T20:45:55.372Z,14.70
2017-12-20T20:48:23.064Z,13.60
2017-12-20T20:50:50.891Z,14.67
2017-12-20T20:53:18.867Z,15.50
2017-12-20T20:55:46.865Z,14.03
2017-12-20T20:58:14.576Z,13.60
2017-12-20T21:00:42.388Z,14.57
2017-12-20T21:03:10.215Z,15.57
2017-12-20T21:05:38.906Z,15.23
2017-12-20T21:08:06.882Z,15.70
2017-12-20T21:10:35.279Z,15.27
2017-12-20T21:13:02.923Z,15.10
2017-12-20T21:15:31.445Z,15.40
2017-12-20T21:17:59.172Z,14.67
2017-12-20T21:20:26.817Z,15.70
2017-12-20T21:22:56.010Z,16.43
2017-12-20T21:25:23.927Z,17.50
2017-12-20T21:27:51.588Z,17.03
2017-12-20T21:30:19.772Z,16.30
2017-12-20T21:32:47.598Z,17.13
2017-12-20T21:35:15.247Z,18.43
2017-12-20T21:37:43.049Z,15.90
2017-12-20T21:40:12.174Z,16.33
2017-12-20T21:42:39.835Z,17.60
2017-12-20T21:45:07.580Z,17.70
2017-12-20T21:47:39.120Z,16.00
2017-12-20T21:50:06.812Z,17.63
2017-12-20T21:52:34.602Z,17.53
2017-12-20T21:55:02.305Z,18.50
2017-12-20T21:57:30.083Z,17.67
2017-12-20T21:59:57.887Z,16.47
2017-12-20T22:02:25.911Z,16.47
2017-12-20T22:04:53.720Z,16.10
2017-12-20T22:07:21.472Z,16.33
2017-12-20T22:09:50.121Z,17.20
2017-12-20T22:12:18.250Z,17.00
2017-12-20T22:14:46.147Z,16.97
2017-12-20T22:17:13.901Z,17.40
2017-12-20T22:19:41.706Z,16.33
2017-12-20T22:22:10.402Z,17.10
2017-12-20T22:24:39.919Z,16.43
2017-12-20T22:27:08.681Z,16.60
2017-12-20T22:29:37.093Z,16.30
2017-12-20T22:32:04.854Z,16.93
2017-12-20T22:34:32.546Z,15.73
2017-12-20T22:37:00.320Z,15.77
2017-12-20T22:39:28.269Z,14.50
2017-12-20T22:41:57.287Z,16.20
2017-12-20T22:44:25.000Z,16.23
2017-12-20T22:46:52.695Z,16.50
2017-12-20T22:49:20.524Z,15.10
2017-12-20T22:51:48.307Z,15.57
2017-12-20T22:54:16.232Z,16.90
2017-12-20T22:56:44.893Z,17.47
2017-12-20T22:59:12.652Z,15.70
2017-12-20T23:01:41.122Z,15.50
2017-12-20T23:04:08.859Z,16.33
2017-12-20T23:06:36.531Z,15.83
2017-12-20T23:09:04.656Z,16.20
2017-12-20T23:11:32.557Z,16.80
2017-12-20T23:14:00.323Z,16.20
2017-12-20T23:16:28.157Z,16.70
2017-12-20T23:18:56.188Z,16.00
2017-12-20T23:21:24.763Z,15.10
2017-12-20T23:23:52.564Z,17.10
2017-12-20T23:26:20.494Z,17.17
2017-12-20T23:28:48.257Z,14.70
2017-12-20T23:31:16.263Z,16.70
2017-12-20T23:33:44.236Z,15.47
2017-12-20T23:36:12.200Z,16.53
2017-12-20T23:38:40.125Z,15.43
2017-12-20T23:41:08.093Z,15.30
2017-12-20T23:43:35.990Z,16.23
2017-12-20T23:46:03.926Z,15.70
2017-12-20T23:48:31.911Z,15.00
2017-12-20T23:51:00.490Z,16.10
2017-12-20T23:53:28.998Z,15.83
2017-12-20T23:55:56.811Z,13.90
2017-12-20T23:58:24.692Z,15.87
